Time;durP1;ratioP1;P1;durP2;ratioP2;P2;SDS_P1;SDS_P2;PMS_P1;PMS_P2;Temp;Humidity;BMP_temperature;BMP_pressure;BME280_temperature;BME280_humidity;BME280_pressure;Samples;Min_cycle;Max_cycle;Signal;HPM_P1;HPM_P2
2023/05/29 00:01:37;;;;;;;6.50;2.70;;;;;;;12.15;81.42;101443.03;6026010;28;20355;-67
2023/05/29 00:04:33;;;;;;;6.82;2.70;;;;;;;11.90;83.18;101423.13;6026051;28;20049;-67
2023/05/29 00:07:30;;;;;;;7.20;2.70;;;;;;;12.01;82.44;101424.81;6028497;28;20335;-67
2023/05/29 00:10:25;;;;;;;10.93;2.90;;;;;;;11.88;82.73;101441.84;6025063;28;20068;-67
2023/05/29 00:13:20;;;;;;;5.40;2.23;;;;;;;11.81;84.26;101454.00;6024428;28;20450;-66
2023/05/29 00:16:17;;;;;;;4.47;2.30;;;;;;;11.93;84.04;101452.91;6026669;28;20045;-67
2023/05/29 00:19:16;;;;;;;7.43;2.85;;;;;;;11.73;84.22;101451.19;6022823;28;20030;-67
2023/05/29 00:22:12;;;;;;;6.00;2.47;;;;;;;11.73;83.88;101448.53;6022187;28;20030;-67
2023/05/29 00:25:07;;;;;;;6.75;2.75;;;;;;;11.70;85.36;101463.88;6025772;28;20033;-67
2023/05/29 00:28:03;;;;;;;14.27;3.40;;;;;;;11.55;86.15;101471.34;6015653;28;20478;-67
2023/05/29 00:30:58;;;;;;;8.65;2.80;;;;;;;11.42;86.96;101470.72;6030442;28;20588;-68
2023/05/29 00:33:53;;;;;;;12.17;3.00;;;;;;;11.25;88.12;101476.69;6040351;28;20033;-68
2023/05/29 00:36:49;;;;;;;8.20;2.60;;;;;;;11.09;87.86;101476.28;6025992;28;20049;-68
2023/05/29 00:39:44;;;;;;;7.10;2.92;;;;;;;11.06;88.59;101474.72;6024398;28;20529;-67
2023/05/29 00:42:40;;;;;;;8.80;3.80;;;;;;;11.06;88.89;101468.59;6026066;28;20076;-67
2023/05/29 00:45:36;;;;;;;5.83;2.40;;;;;;;11.22;87.64;101476.94;6016743;28;20104;-67
2023/05/29 00:48:31;;;;;;;5.45;2.75;;;;;;;11.12;87.57;101491.94;6021548;28;20026;-67
2023/05/29 00:51:27;;;;;;;9.15;2.90;;;;;;;11.06;88.49;101471.25;6019498;28;20428;-67
2023/05/29 00:54:27;;;;;;;5.22;2.40;;;;;;;11.05;88.92;101466.91;6033495;28;20066;-67
2023/05/29 00:57:23;;;;;;;10.05;3.00;;;;;;;11.23;87.87;101492.72;6014684;28;20033;-67
2023/05/29 01:00:18;;;;;;;6.20;2.75;;;;;;;11.23;86.91;101465.31;6018931;28;20097;-67
2023/05/29 01:03:17;;;;;;;6.57;2.65;;;;;;;11.10;87.50;101481.47;6025714;28;20026;-67
2023/05/29 01:06:12;;;;;;;7.28;2.90;;;;;;;11.02;88.24;101488.41;6022887;28;20037;-67
2023/05/29 01:09:08;;;;;;;9.30;2.83;;;;;;;10.91;89.03;101491.97;6025068;28;20061;-67
2023/05/29 01:12:22;;;;;;;7.38;2.55;;;;;;;10.90;89.58;101502.72;6019184;28;20022;-67
2023/05/29 01:15:35;;;;;;;9.45;2.90;;;;;;;10.93;90.18;101500.63;6030913;28;20377;-67
2023/05/29 01:19:08;;;;;;;5.63;2.78;;;;;;;10.84;90.05;101492.59;6035402;28;20034;-67
2023/05/29 01:22:19;;;;;;;9.20;3.13;;;;;;;10.80;89.89;101488.50;6024868;28;20080;-67
2023/05/29 01:25:24;;;;;;;4.85;2.40;;;;;;;10.82;91.43;101508.63;6023878;28;20055;-67
2023/05/29 01:28:21;;;;;;;9.98;3.33;;;;;;;10.70;90.78;101499.91;6014146;28;20070;-67
2023/05/29 01:31:22;;;;;;;6.03;2.72;;;;;;;10.81;91.26;101496.38;6012375;28;20039;-67
2023/05/29 01:34:17;;;;;;;;;;;;;;;10.88;90.56;101509.94;6023516;28;20041;-66
2023/05/29 01:37:13;;;;;;;5.27;2.40;;;;;;;10.85;90.69;101496.94;6022156;28;19913;-67
2023/05/29 01:40:09;;;;;;;8.73;2.72;;;;;;;10.86;90.35;101509.22;6025586;28;20026;-68
2023/05/29 01:43:05;;;;;;;6.38;2.60;;;;;;;10.76;90.85;101499.38;6037349;28;20488;-68
2023/05/29 01:46:00;;;;;;;8.52;3.28;;;;;;;10.56;91.58;101516.13;6012846;28;20034;-68
2023/05/29 01:48:56;;;;;;;5.82;2.80;;;;;;;10.60;91.85;101498.97;6019731;28;20041;-67
2023/05/29 01:51:51;;;;;;;6.63;2.75;;;;;;;10.60;91.37;101517.53;6021234;28;20044;-68
2023/05/29 01:54:47;;;;;;;8.88;2.83;;;;;;;10.52;91.74;101493.47;6015123;28;20035;-67
2023/05/29 01:57:43;;;;;;;5.57;2.97;;;;;;;10.49;91.45;101508.81;6022290;28;20113;-67
2023/05/29 02:00:40;;;;;;;8.15;3.10;;;;;;;10.29;92.85;101521.03;6026521;28;20474;-67
2023/05/29 02:03:35;;;;;;;8.32;2.70;;;;;;;10.38;94.17;101528.22;6012068;28;20122;-69
2023/05/29 02:06:30;;;;;;;6.85;2.28;;;;;;;10.29;94.43;101541.38;6017446;28;20041;-66
2023/05/29 02:09:26;;;;;;;8.07;2.92;;;;;;;10.34;94.33;101540.03;6028540;28;20074;-67
2023/05/29 02:12:21;;;;;;;8.63;2.73;;;;;;;10.15;94.62;101532.75;6015751;28;20100;-68
2023/05/29 02:15:16;;;;;;;6.20;2.83;;;;;;;10.24;94.54;101527.66;6028019;28;20696;-67
2023/05/29 02:18:14;;;;;;;7.50;3.30;;;;;;;10.10;94.75;101520.78;6028518;28;20030;-68
2023/05/29 02:21:09;;;;;;;7.13;2.60;;;;;;;10.20;95.05;101535.00;6028124;28;20026;-67
2023/05/29 02:24:05;;;;;;;7.77;2.80;;;;;;;10.22;94.65;101530.41;6023020;28;20034;-67
2023/05/29 02:27:00;;;;;;;7.87;2.70;;;;;;;10.40;94.70;101538.72;6034116;28;20069;-67
2023/05/29 02:29:56;;;;;;;6.25;2.78;;;;;;;10.46;93.60;101547.00;6042313;28;20273;-67
2023/05/29 02:32:51;;;;;;;9.80;2.50;;;;;;;10.42;93.79;101534.97;6024854;28;20049;-67
2023/05/29 02:35:46;;;;;;;4.88;2.22;;;;;;;10.37;92.52;101545.09;6027026;28;20077;-67
2023/05/29 02:38:42;;;;;;;7.40;2.40;;;;;;;10.35;93.69;101540.91;6025995;28;20477;-67
2023/05/29 02:41:37;;;;;;;4.67;2.20;;;;;;;10.44;93.42;101522.41;6028648;28;20477;-67
2023/05/29 02:44:32;;;;;;;6.70;2.50;;;;;;;10.86;90.79;101531.31;6030218;28;20030;-67
2023/05/29 02:47:27;;;;;;;6.70;3.00;;;;;;;10.63;91.52;101529.69;6030004;28;20022;-67
2023/05/29 02:50:23;;;;;;;6.93;3.10;;;;;;;10.18;92.56;101513.09;6028302;28;20092;-67
2023/05/29 02:53:18;;;;;;;6.63;2.47;;;;;;;10.34;92.02;101534.75;6027335;28;20026;-67
2023/05/29 02:56:15;;;;;;;5.87;1.93;;;;;;;10.54;91.86;101554.34;6026120;28;20285;-67
2023/05/29 02:59:10;;;;;;;5.88;2.47;;;;;;;10.60;91.00;101548.50;6019327;28;20278;-67
2023/05/29 03:02:06;;;;;;;7.13;2.40;;;;;;;10.40;90.97;101531.59;6015173;28;20033;-67
2023/05/29 03:05:01;;;;;;;6.80;2.50;;;;;;;10.65;90.67;101549.81;6026470;28;20030;-67
2023/05/29 03:07:57;;;;;;;6.85;2.30;;;;;;;10.52;91.14;101543.00;6027263;28;20516;-67
2023/05/29 03:10:52;;;;;;;5.70;2.30;;;;;;;10.58;91.11;101553.09;6026236;28;20030;-67
2023/05/29 03:13:49;;;;;;;4.17;1.93;;;;;;;10.71;91.00;101549.31;6027436;28;20745;-67
2023/05/29 03:16:44;;;;;;;8.85;2.45;;;;;;;10.87;89.00;101554.19;6027049;28;20030;-67
2023/05/29 03:19:40;;;;;;;4.40;1.95;;;;;;;10.41;88.55;101525.31;6027653;28;20057;-67
2023/05/29 03:22:35;;;;;;;12.97;2.70;;;;;;;10.58;89.27;101548.66;6032993;28;20124;-67
2023/05/29 03:25:30;;;;;;;4.43;2.17;;;;;;;10.63;89.46;101546.47;6026852;28;20374;-67
2023/05/29 03:28:25;;;;;;;6.47;2.57;;;;;;;10.57;88.00;101551.44;6022066;28;20414;-67
2023/05/29 03:31:21;;;;;;;7.33;2.20;;;;;;;10.76;87.94;101560.41;6022652;28;20026;-67
2023/05/29 03:34:16;;;;;;;7.07;2.65;;;;;;;10.74;87.76;101565.00;6023891;28;20109;-68
2023/05/29 03:37:11;;;;;;;6.77;2.33;;;;;;;10.53;88.01;101550.00;6027715;28;20413;-66
2023/05/29 03:40:07;;;;;;;8.03;2.57;;;;;;;10.38;89.23;101567.16;6026258;28;20022;-67
2023/05/29 03:43:03;;;;;;;4.90;1.92;;;;;;;10.25;90.90;101562.00;6026494;28;20107;-67
2023/05/29 03:45:58;;;;;;;4.83;2.10;;;;;;;10.12;90.65;101537.41;6023527;28;20034;-67
2023/05/29 03:48:53;;;;;;;7.17;2.13;;;;;;;10.55;89.90;101570.13;6022971;28;20262;-67
2023/05/29 03:51:49;;;;;;;4.30;2.07;;;;;;;10.48;89.51;101562.78;6020432;28;20045;-67
2023/05/29 03:54:45;;;;;;;5.25;2.10;;;;;;;10.54;89.85;101563.16;6012679;28;20366;-66
2023/05/29 03:57:41;;;;;;;9.20;2.20;;;;;;;10.87;88.56;101577.25;6016382;28;20030;-67
2023/05/29 04:00:36;;;;;;;5.78;2.25;;;;;;;11.23;86.57;101575.03;6019803;28;20033;-67
2023/05/29 04:03:32;;;;;;;6.97;2.40;;;;;;;11.19;85.36;101567.47;6025660;28;20038;-67
2023/05/29 04:06:27;;;;;;;5.03;1.95;;;;;;;11.09;84.91;101554.09;6024338;28;20026;-66
2023/05/29 04:09:22;;;;;;;5.63;1.80;;;;;;;11.50;84.49;101563.88;6021938;28;20570;-66
2023/05/29 04:12:18;;;;;;;3.97;1.80;;;;;;;11.74;84.09;101566.28;6025880;28;20066;-67
2023/05/29 04:15:13;;;;;;;6.90;1.58;;;;;;;11.83;81.94;101576.09;6016247;28;20030;-67
2023/05/29 04:18:08;;;;;;;6.18;2.42;;;;;;;12.21;80.17;101575.41;6025684;28;20038;-67
2023/05/29 04:21:04;;;;;;;7.87;2.00;;;;;;;11.93;80.80;101576.97;6026433;28;20474;-67
2023/05/29 04:24:00;;;;;;;4.10;1.35;;;;;;;11.94;81.75;101568.03;6025260;28;20034;-68
2023/05/29 04:26:55;;;;;;;6.80;2.10;;;;;;;12.63;78.98;101582.25;6021815;28;20121;-69
2023/05/29 04:29:50;;;;;;;7.27;1.60;;;;;;;12.45;79.02;101576.75;6025604;28;20030;-67
2023/05/29 04:32:46;;;;;;;4.47;1.63;;;;;;;12.26;79.30;101578.50;6026322;28;20048;-66
2023/05/29 04:35:45;;;;;;;4.78;1.90;;;;;;;12.14;80.03;101584.91;6016731;28;20359;-68
2023/05/29 04:38:40;;;;;;;7.22;2.22;;;;;;;12.06;79.11;101577.63;6024331;28;20038;-68
2023/05/29 04:41:37;;;;;;;4.07;1.50;;;;;;;12.18;80.30;101592.47;6025522;28;20038;-66
2023/05/29 04:44:33;;;;;;;6.70;1.85;;;;;;;12.30;79.54;101587.91;6023733;28;20378;-66
2023/05/29 04:47:28;;;;;;;7.83;2.60;;;;;;;12.66;76.57;101586.44;6026212;28;20041;-66
2023/05/29 04:50:24;;;;;;;7.60;1.63;;;;;;;12.39;78.42;101585.25;6023796;28;20030;-67
2023/05/29 04:53:19;;;;;;;6.78;1.48;;;;;;;12.47;79.29;101597.91;6021967;28;20053;-66
2023/05/29 04:56:14;;;;;;;8.48;2.03;;;;;;;12.84;77.61;101590.09;6024460;28;20034;-67
2023/05/29 04:59:11;;;;;;;9.45;2.00;;;;;;;13.01;76.65;101597.41;6023901;28;20129;-67
2023/05/29 05:02:07;;;;;;;9.07;1.80;;;;;;;13.04;75.78;101597.13;6015468;28;20076;-66
2023/05/29 05:05:02;;;;;;;4.70;1.40;;;;;;;13.04;76.05;101595.28;6024538;28;20034;-67
2023/05/29 05:07:57;;;;;;;7.57;1.98;;;;;;;13.74;74.72;101604.78;6015657;28;20035;-67
2023/05/29 05:10:53;;;;;;;5.83;1.40;;;;;;;14.26;70.59;101598.81;6019277;28;20046;-67
2023/05/29 05:13:48;;;;;;;3.40;1.33;;;;;;;13.92;70.97;101587.03;6025185;28;20030;-67
2023/05/29 05:16:43;;;;;;;5.80;1.60;;;;;;;13.95;71.32;101593.88;6030764;28;20045;-67
2023/05/29 05:19:38;;;;;;;9.90;2.23;;;;;;;14.76;67.83;101587.72;6023798;28;20278;-67
2023/05/29 05:22:34;;;;;;;10.73;2.00;;;;;;;14.91;66.64;101602.22;6023136;28;20029;-67
2023/05/29 05:25:29;;;;;;;4.00;1.43;;;;;;;14.40;68.14;101597.53;6026968;28;20113;-67
2023/05/29 05:28:24;;;;;;;6.97;1.60;;;;;;;14.40;68.28;101588.66;6041158;28;20365;-67
2023/05/29 05:31:22;;;;;;;7.00;1.80;;;;;;;14.83;66.84;101591.47;6027981;28;20046;-67
2023/05/29 05:34:17;;;;;;;4.88;1.75;;;;;;;15.11;65.95;101587.72;6013201;28;20109;-67
2023/05/29 05:37:12;;;;;;;7.53;1.90;;;;;;;15.51;64.27;101603.28;6021760;28;20048;-67
2023/05/29 05:40:09;;;;;;;7.20;1.90;;;;;;;15.75;62.36;101607.94;6053824;28;20026;-66
2023/05/29 05:43:04;;;;;;;8.40;1.77;;;;;;;15.43;63.67;101592.50;6039100;28;20031;-66
2023/05/29 05:45:59;;;;;;;5.57;1.87;;;;;;;15.34;63.31;101586.25;6028979;28;20041;-67
2023/05/29 05:48:57;;;;;;;5.82;1.65;;;;;;;15.92;63.84;101581.16;6018287;28;20026;-67
2023/05/29 05:51:53;;;;;;;6.22;1.85;;;;;;;16.07;62.02;101595.59;6023467;28;20037;-66
2023/05/29 05:54:48;;;;;;;7.57;1.93;;;;;;;16.27;61.31;101590.84;6029081;28;20112;-68
2023/05/29 05:57:43;;;;;;;6.30;1.80;;;;;;;16.04;61.53;101600.41;6029206;28;20088;-67
2023/05/29 06:00:42;;;;;;;7.13;1.70;;;;;;;15.86;62.89;101600.50;6029755;28;20038;-67
2023/05/29 06:03:37;;;;;;;9.73;2.08;;;;;;;15.82;61.61;101601.81;6026562;28;20508;-67
2023/05/29 06:06:33;;;;;;;9.77;1.93;;;;;;;15.55;62.06;101606.47;6018830;28;20046;-67
2023/05/29 06:09:28;;;;;;;7.50;1.83;;;;;;;16.04;60.95;101589.72;6029499;28;20265;-66
2023/05/29 06:12:24;;;;;;;7.47;2.38;;;;;;;16.31;61.60;101605.56;6028084;28;20069;-67
2023/05/29 06:15:19;;;;;;;9.30;1.60;;;;;;;15.96;62.05;101624.47;6028054;28;20031;-66
2023/05/29 06:18:15;;;;;;;4.57;1.63;;;;;;;16.25;61.59;101597.34;6028431;28;20157;-67
2023/05/29 06:21:12;;;;;;;7.63;1.50;;;;;;;17.06;59.87;101620.72;6028566;28;20038;-67
2023/05/29 06:24:07;;;;;;;6.75;2.03;;;;;;;16.33;60.18;101622.31;6028534;28;20039;-66
2023/05/29 06:27:03;;;;;;;8.93;1.98;;;;;;;16.27;61.48;101614.09;6027880;28;20030;-67
2023/05/29 06:29:58;;;;;;;5.33;1.87;;;;;;;15.52;63.06;101628.19;6020843;28;20028;-66
2023/05/29 06:32:53;;;;;;;8.13;1.53;;;;;;;15.67;63.37;101626.63;6028015;28;20745;-67
2023/05/29 06:35:49;;;;;;;11.32;2.10;;;;;;;15.28;64.67;101639.47;6028477;28;20025;-67
2023/05/29 06:38:50;;;;;;;6.27;1.77;;;;;;;15.25;65.52;101635.28;6028867;28;20108;-67
2023/05/29 06:41:46;;;;;;;9.35;1.83;;;;;;;15.11;66.92;101641.16;6027392;28;20027;-68
2023/05/29 06:44:41;;;;;;;9.02;1.80;;;;;;;15.41;64.67;101614.03;6027980;28;20139;-67
2023/05/29 06:47:36;;;;;;;6.70;2.60;;;;;;;15.86;63.78;101626.41;6027621;28;20042;-67
2023/05/29 06:50:33;;;;;;;7.63;2.07;;;;;;;15.43;64.05;101637.94;6020325;28;20396;-68
2023/05/29 06:53:28;;;;;;;6.53;1.73;;;;;;;15.48;64.81;101638.34;6027526;28;20401;-69
2023/05/29 06:56:25;;;;;;;7.33;1.70;;;;;;;16.32;62.79;101636.69;6028624;28;20089;-66
2023/05/29 06:59:20;;;;;;;5.65;1.60;;;;;;;15.83;62.63;101645.44;6028323;28;20030;-67
2023/05/29 07:02:16;;;;;;;7.60;1.80;;;;;;;16.69;59.59;101651.63;6024850;28;20572;-67
2023/05/29 07:05:11;;;;;;;9.20;2.00;;;;;;;16.33;61.21;101664.31;6026584;28;20026;-67
2023/05/29 07:08:07;;;;;;;7.03;1.80;;;;;;;16.09;61.55;101654.28;6026498;28;20034;-68
2023/05/29 07:11:02;;;;;;;12.10;2.13;;;;;;;15.77;63.04;101656.75;6024248;28;20026;-67
2023/05/29 07:13:57;;;;;;;7.20;2.20;;;;;;;15.73;64.23;101666.97;6025908;28;20022;-70
2023/05/29 07:16:53;;;;;;;10.67;2.23;;;;;;;16.25;62.79;101670.44;6024375;28;20030;-68
2023/05/29 07:19:49;;;;;;;6.47;1.70;;;;;;;15.83;63.56;101662.34;6010367;28;20022;-68
2023/05/29 07:22:44;;;;;;;4.90;1.70;;;;;;;15.43;64.19;101684.22;6028526;28;20369;-67
2023/05/29 07:25:39;;;;;;;10.10;1.80;;;;;;;15.55;65.26;101684.00;6043450;28;20042;-67
2023/05/29 07:28:35;;;;;;;8.30;1.80;;;;;;;15.57;65.58;101692.72;6030902;28;20038;-67
2023/05/29 07:31:30;;;;;;;6.93;1.83;;;;;;;15.93;63.95;101686.31;6026787;28;20269;-67
2023/05/29 07:34:26;;;;;;;7.03;1.80;;;;;;;15.87;62.02;101686.97;6018211;28;20035;-68
2023/05/29 07:37:21;;;;;;;8.45;2.05;;;;;;;15.96;63.32;101675.28;6022706;28;20038;-69
2023/05/29 07:40:16;;;;;;;6.68;1.90;;;;;;;16.35;61.40;101683.72;6023411;28;20437;-69
2023/05/29 07:43:12;;;;;;;6.30;1.98;;;;;;;16.48;61.67;101694.84;6023958;28;20042;-69
2023/05/29 07:46:07;;;;;;;8.87;1.70;;;;;;;16.83;61.47;101665.19;6032786;28;20500;-68
2023/05/29 07:49:02;;;;;;;6.27;1.60;;;;;;;17.16;58.76;101669.63;6029987;28;20462;-68
2023/05/29 07:51:58;;;;;;;11.03;2.47;;;;;;;16.75;59.02;101669.69;6023789;28;20348;-69
2023/05/29 07:54:53;;;;;;;6.27;1.90;;;;;;;16.64;60.82;101663.63;6026262;28;20057;-68
2023/05/29 07:57:48;;;;;;;8.60;1.60;;;;;;;16.74;60.60;101670.72;6033451;28;20068;-69
2023/05/29 08:00:44;;;;;;;5.80;1.50;;;;;;;17.39;58.74;101680.56;6044332;28;20389;-68
2023/05/29 08:03:41;;;;;;;10.75;1.80;;;;;;;17.69;57.90;101677.22;6026143;28;20045;-68
2023/05/29 08:06:36;;;;;;;6.85;1.88;;;;;;;17.77;57.86;101671.84;6026221;28;20041;-68
2023/05/29 08:09:32;;;;;;;8.47;2.37;;;;;;;17.63;58.27;101671.72;6026321;28;20043;-68
2023/05/29 08:12:27;;;;;;;4.90;1.80;;;;;;;17.49;58.88;101675.88;6026500;28;20289;-68
2023/05/29 08:15:24;;;;;;;7.80;1.83;;;;;;;18.02;56.55;101669.16;6040955;28;20021;-68
2023/05/29 08:18:19;;;;;;;9.68;1.85;;;;;;;17.92;54.56;101661.28;6025196;28;20015;-69
2023/05/29 08:21:14;;;;;;;8.50;1.80;;;;;;;18.21;54.73;101661.53;6026011;28;20029;-68
2023/05/29 08:24:09;;;;;;;9.37;1.90;;;;;;;17.88;54.82;101653.75;6025949;28;20026;-68
2023/05/29 08:27:05;;;;;;;8.35;1.85;;;;;;;18.64;53.92;101665.63;6014866;28;20038;-69
2023/05/29 08:30:00;;;;;;;8.82;1.65;;;;;;;18.50;50.42;101668.19;6012615;28;20032;-69
2023/05/29 08:32:55;;;;;;;8.30;1.80;;;;;;;17.92;53.78;101661.28;6024682;28;20033;-68
2023/05/29 08:35:51;;;;;;;11.13;1.70;;;;;;;18.67;52.66;101662.56;6023367;28;20262;-68
2023/05/29 08:38:47;;;;;;;7.10;1.73;;;;;;;18.79;50.59;101674.59;6027082;28;20058;-68
2023/05/29 08:41:58;;;;;;;6.78;1.60;;;;;;;19.33;47.50;101671.91;6010965;28;20035;-67
2023/05/29 08:44:57;;;;;;;5.75;1.38;;;;;;;18.94;47.74;101680.09;6015299;28;20030;-67
2023/05/29 08:47:53;;;;;;;4.63;1.40;;;;;;;19.02;49.28;101656.66;6028249;28;20030;-68
2023/05/29 08:50:51;;;;;;;6.05;1.48;;;;;;;18.83;47.92;101667.03;6019058;28;20035;-68
2023/05/29 08:53:47;;;;;;;7.90;2.05;;;;;;;19.33;48.77;101661.16;6008209;28;20035;-67
2023/05/29 08:56:42;;;;;;;7.18;1.90;;;;;;;19.38;47.75;101664.16;6023610;28;20037;-67
2023/05/29 08:59:41;;;;;;;7.20;1.20;;;;;;;19.83;46.76;101664.13;6019467;28;20033;-68
2023/05/29 09:02:37;;;;;;;7.53;1.80;;;;;;;19.77;46.28;101680.16;6017348;28;20292;-67
2023/05/29 09:05:33;;;;;;;7.72;1.60;;;;;;;19.71;46.80;101662.88;6023910;28;20038;-67
2023/05/29 09:08:29;;;;;;;6.55;2.10;;;;;;;19.58;47.61;101668.03;6029298;28;20524;-68
2023/05/29 09:11:25;;;;;;;8.93;1.88;;;;;;;19.21;48.40;101665.28;6033636;28;20043;-68
2023/05/29 09:14:39;;;;;;;3.85;1.65;;;;;;;18.96;47.42;101661.91;6009972;28;20486;-67
2023/05/29 09:17:34;;;;;;;7.85;1.67;;;;;;;18.91;48.86;101673.22;6024893;28;20027;-68
2023/05/29 09:20:30;;;;;;;4.88;1.60;;;;;;;18.83;50.75;101667.84;6030267;28;20041;-67
2023/05/29 09:23:25;;;;;;;9.27;2.22;;;;;;;19.18;50.29;101681.78;6029380;28;20034;-67
2023/05/29 09:26:23;;;;;;;6.03;1.63;;;;;;;19.59;49.63;101681.31;6018198;28;20577;-67
2023/05/29 09:29:18;;;;;;;4.97;1.73;;;;;;;19.09;49.03;101680.97;6028319;28;20265;-68
2023/05/29 09:32:17;;;;;;;9.27;1.50;;;;;;;19.16;50.79;101678.44;6029510;28;20339;-67
2023/05/29 09:35:13;;;;;;;6.45;1.73;;;;;;;19.16;50.54;101679.25;6023314;28;20269;-68
2023/05/29 09:38:10;;;;;;;6.60;1.67;;;;;;;19.05;50.06;101676.16;6029386;28;20101;-68
2023/05/29 09:41:06;;;;;;;8.73;1.98;;;;;;;19.33;51.57;101682.66;6029596;28;20643;-68
2023/05/29 09:44:03;;;;;;;7.47;1.67;;;;;;;19.61;49.02;101686.53;6028037;28;20034;-68
2023/05/29 09:46:59;;;;;;;7.55;1.90;;;;;;;19.98;48.17;101686.50;6029105;28;20470;-68
2023/05/29 09:49:55;;;;;;;7.78;2.08;;;;;;;19.41;48.68;101677.25;6026539;28;20355;-68
2023/05/29 09:52:53;;;;;;;10.48;1.75;;;;;;;19.05;48.72;101665.41;6027509;28;20030;-67
2023/05/29 09:55:50;;;;;;;6.68;1.92;;;;;;;19.39;48.92;101676.59;6052066;28;20048;-67
2023/05/29 09:58:46;;;;;;;11.07;1.90;;;;;;;19.91;47.94;101664.03;6031887;28;20026;-68
2023/05/29 10:01:46;;;;;;;6.18;1.70;;;;;;;20.07;47.63;101669.25;6027707;28;20030;-67
2023/05/29 10:04:43;;;;;;;6.45;1.83;;;;;;;20.47;46.57;101672.53;6028257;28;20045;-68
2023/05/29 10:07:40;;;;;;;7.78;2.10;;;;;;;20.27;46.61;101671.44;6016246;28;20923;-67
2023/05/29 10:10:37;;;;;;;4.85;1.35;;;;;;;19.83;46.44;101661.44;6004453;28;20045;-68
2023/05/29 10:13:36;;;;;;;6.38;2.13;;;;;;;19.59;46.08;101669.72;6022215;28;20034;-67
2023/05/29 10:16:36;;;;;;;6.18;1.60;;;;;;;19.43;47.87;101675.25;6019298;28;20031;-68
2023/05/29 10:19:31;;;;;;;9.23;2.03;;;;;;;19.41;48.20;101655.72;6033927;28;20036;-68
2023/05/29 10:22:27;;;;;;;6.13;1.75;;;;;;;19.37;48.38;101679.47;6050591;28;20026;-67
2023/05/29 10:25:23;;;;;;;8.15;2.15;;;;;;;19.47;46.83;101660.41;6026795;28;20025;-68
2023/05/29 10:28:20;;;;;;;7.32;2.20;;;;;;;19.93;45.78;101672.75;6025742;28;20085;-67
2023/05/29 10:31:24;;;;;;;4.18;1.60;;;;;;;20.12;45.48;101657.91;6059098;28;20030;-68
2023/05/29 10:34:33;;;;;;;4.95;1.52;;;;;;;20.19;44.91;101662.38;6037050;28;20019;-67
2023/05/29 10:37:52;;;;;;;7.95;2.92;;;;;;;20.23;44.61;101667.41;6028116;28;20134;-67
2023/05/29 10:40:47;;;;;;;6.35;1.48;;;;;;;20.35;44.57;101652.47;6018389;28;20035;-67
2023/05/29 10:43:44;;;;;;;5.13;1.70;;;;;;;20.41;43.32;101659.81;6025334;28;20037;-67
2023/05/29 10:46:42;;;;;;;7.88;2.10;;;;;;;20.61;44.24;101655.50;6028070;28;20029;-67
2023/05/29 10:49:37;;;;;;;7.07;1.63;;;;;;;20.86;44.08;101646.06;6027991;28;20025;-67
2023/05/29 10:52:33;;;;;;;8.68;1.80;;;;;;;20.95;42.89;101642.25;6020184;28;20040;-67
2023/05/29 10:55:35;;;;;;;7.35;2.00;;;;;;;21.26;43.57;101644.66;6026599;28;20492;-68
2023/05/29 10:58:31;;;;;;;7.72;1.80;;;;;;;21.11;43.22;101647.44;6028084;28;20030;-67
2023/05/29 11:01:27;;;;;;;6.72;2.22;;;;;;;20.62;43.81;101638.31;6027787;28;20104;-68
2023/05/29 11:04:26;;;;;;;5.60;1.77;;;;;;;20.87;43.30;101645.06;6027406;28;20105;-68
2023/05/29 11:07:54;;;;;;;6.35;1.75;;;;;;;20.75;43.17;101635.78;6026979;28;20026;-68
2023/05/29 11:10:52;;;;;;;5.53;1.80;;;;;;;20.55;44.02;101640.94;6026675;28;20054;-68
2023/05/29 11:13:55;;;;;;;7.28;1.70;;;;;;;20.62;43.06;101623.00;6027006;28;20501;-68
2023/05/29 11:16:51;;;;;;;6.90;1.70;;;;;;;20.95;41.58;101620.66;6033377;28;20093;-68
2023/05/29 11:19:46;;;;;;;10.73;1.85;;;;;;;21.09;42.04;101627.06;6051323;28;20045;-68
2023/05/29 11:22:54;;;;;;;4.70;1.60;;;;;;;21.02;42.38;101639.59;6034512;28;20030;-68
2023/05/29 11:25:50;;;;;;;6.05;1.70;;;;;;;21.05;43.83;101631.97;6022108;28;20046;-68
2023/05/29 11:28:46;;;;;;;6.53;1.85;;;;;;;21.17;41.77;101629.63;6020922;28;20488;-68
2023/05/29 11:31:43;;;;;;;4.80;1.40;;;;;;;21.40;40.94;101632.97;6043024;28;20135;-68
2023/05/29 11:34:41;;;;;;;6.47;1.90;;;;;;;21.44;40.36;101604.56;6038430;28;20038;-68
2023/05/29 11:37:38;;;;;;;6.80;2.05;;;;;;;21.39;40.50;101627.78;6027281;28;20034;-68
2023/05/29 11:40:37;;;;;;;6.78;1.88;;;;;;;21.88;40.23;101629.41;6023725;28;20102;-68
2023/05/29 11:43:33;;;;;;;5.05;1.42;;;;;;;22.00;39.83;101615.38;6022061;28;20032;-68
2023/05/29 11:46:32;;;;;;;6.07;1.40;;;;;;;21.54;39.68;101636.59;6027007;28;20038;-68
2023/05/29 11:49:28;;;;;;;5.15;1.77;;;;;;;21.56;39.79;101623.75;6026646;28;20078;-68
2023/05/29 11:52:23;;;;;;;6.13;2.10;;;;;;;21.85;39.49;101629.78;6026953;28;20057;-68
2023/05/29 11:55:20;;;;;;;7.57;2.10;;;;;;;21.64;39.82;101624.44;6035486;28;20100;-68
2023/05/29 11:58:16;;;;;;;6.68;2.15;;;;;;;21.65;38.45;101612.63;6019781;28;20054;-68
2023/05/29 12:01:11;;;;;;;6.00;1.67;;;;;;;21.68;38.19;101616.78;6026694;28;20105;-68
2023/05/29 12:04:14;;;;;;;8.53;1.87;;;;;;;21.73;37.69;101603.53;6024197;28;20056;-68
2023/05/29 12:07:19;;;;;;;6.18;2.10;;;;;;;22.50;38.08;101606.91;6016249;28;20833;-68
2023/05/29 12:10:21;;;;;;;4.18;1.63;;;;;;;22.45;37.80;101612.91;6014865;28;20377;-68
2023/05/29 12:13:18;;;;;;;6.35;1.83;;;;;;;22.30;36.52;101596.00;6019412;28;20038;-68
2023/05/29 12:16:14;;;;;;;5.57;2.08;;;;;;;22.66;38.21;101611.16;6025478;28;20038;-68
2023/05/29 12:19:09;;;;;;;6.28;2.28;;;;;;;22.12;37.39;101614.63;6015713;28;20030;-69
2023/05/29 12:22:05;;;;;;;9.27;1.83;;;;;;;21.86;38.28;101612.59;6027894;28;20059;-69
2023/05/29 12:25:09;;;;;;;7.22;1.88;;;;;;;21.78;38.72;101607.31;6035559;28;20018;-68
2023/05/29 12:28:04;;;;;;;7.18;2.00;;;;;;;21.85;38.65;101607.38;6015382;28;20026;-69
2023/05/29 12:31:00;;;;;;;5.95;2.08;;;;;;;21.65;37.93;101617.19;6035677;28;20462;-69
2023/05/29 12:34:03;;;;;;;5.87;2.10;;;;;;;21.57;38.13;101606.53;6022890;28;20157;-69
2023/05/29 12:37:06;;;;;;;6.32;1.95;;;;;;;22.03;37.47;101629.31;6021651;28;20676;-69
2023/05/29 12:40:18;;;;;;;4.15;1.50;;;;;;;22.35;37.28;101620.56;6025104;28;20031;-69
2023/05/29 12:43:13;;;;;;;7.75;2.28;;;;;;;21.72;37.40;101605.38;6019287;28;20109;-69
2023/05/29 12:46:09;;;;;;;6.73;1.80;;;;;;;22.15;38.33;101602.59;6022451;28;20026;-69
2023/05/29 12:49:21;;;;;;;6.97;1.57;;;;;;;22.46;36.93;101611.03;6021795;28;20027;-69
2023/05/29 12:52:20;;;;;;;5.00;1.75;;;;;;;22.43;37.30;101612.28;6020115;28;20290;-69
2023/05/29 12:55:15;;;;;;;9.52;1.85;;;;;;;22.68;36.80;101592.84;6047436;28;20104;-69
2023/05/29 12:58:18;;;;;;;5.83;1.73;;;;;;;22.51;35.67;101597.75;6048816;28;20022;-69
2023/05/29 13:01:14;;;;;;;6.97;1.90;;;;;;;22.65;34.90;101571.59;6049759;28;20057;-67
2023/05/29 13:04:12;;;;;;;6.30;1.60;;;;;;;22.75;35.75;101594.53;6034095;28;20030;-68
2023/05/29 13:07:07;;;;;;;7.53;1.88;;;;;;;22.94;34.86;101588.31;6025790;28;20491;-68
2023/05/29 13:10:02;;;;;;;8.07;2.10;;;;;;;23.07;35.04;101599.16;6040982;28;20038;-68
2023/05/29 13:12:58;;;;;;;7.68;1.77;;;;;;;22.93;35.28;101602.06;6033995;28;20038;-68
2023/05/29 13:15:54;;;;;;;5.53;1.80;;;;;;;22.78;35.79;101599.53;6025014;28;20022;-68
2023/05/29 13:18:49;;;;;;;5.40;1.80;;;;;;;23.06;34.39;101602.94;6025125;28;20096;-68
2023/05/29 13:21:48;;;;;;;6.35;2.10;;;;;;;23.27;35.39;101588.34;6025126;28;20022;-68
2023/05/29 13:24:43;;;;;;;6.03;2.33;;;;;;;23.30;35.32;101604.19;6023589;28;20049;-68
2023/05/29 13:27:44;;;;;;;8.27;1.97;;;;;;;22.71;35.71;101582.47;6023735;28;20462;-68
2023/05/29 13:30:39;;;;;;;5.70;1.73;;;;;;;22.62;36.76;101596.31;6025056;28;20033;-68
2023/05/29 13:33:35;;;;;;;4.97;1.70;;;;;;;22.35;36.22;101612.44;6024621;28;20023;-68
2023/05/29 13:36:31;;;;;;;7.27;1.77;;;;;;;22.51;34.40;101598.59;6025661;28;20046;-68
2023/05/29 13:39:27;;;;;;;5.25;1.83;;;;;;;22.73;34.96;101609.28;6025346;28;20269;-68
2023/05/29 13:42:23;;;;;;;6.55;1.60;;;;;;;23.09;33.79;101593.56;6025039;28;20034;-68